Aérodrome :
LOGIN :

S'inscrire | Disclaimer

   EN    FR    IT 

 










Légende :    VFR   VFR Marginal   IFR   IFR Intensif   IFR Très Intensif
Visi : 
Plafond : 
>= 8 km
>= 3000ft
5 à 8 km
1000 à 3000 ft
1500m à 5 km
500 à 1000 ft
800 à 1500m
200 à 500 ft
< 800m
< 200 ft
Symboles :   Orages  Brouillard  Fortes neiges  Fortes précipitations  Vent > 20 kt
SIGMETs :   Divers  Orages  Givrage  Turbulence  Onde Orograph.  Cendres Volcan.






- Altitude de l'aérodrome : 915 ft
- Code IATA : LUG


LSZA - Lugano

DERNIER METAR :
  • 281220Z 19007KT 9999 FEW068 24/11 Q1021 NOSIG

METARs EXPIRÉS :
  • 281150Z 18005KT 120V220 9999 FEW068 24/10 Q1022 NOSIG
  • 281120Z 19006KT 150V220 9999 FEW070 24/12 Q1022 NOSIG
  • 281050Z 20005KT 9999 FEW070 23/11 Q1023 NOSIG
  • 281020Z 20004KT 160V220 CAVOK 22/11 Q1023 NOSIG
  • 280950Z 20004KT 160V230 CAVOK 21/12 Q1024 NOSIG

TAF TAF LSZA
Valide du 28 à 12h jusqu'au 28 à 21h UTC


281125Z 2812/2821 20005KT CAVOK
TEMPO 2812/2817 9999 FEW070 SCT100
ATIS : +41 22 417 40 88



MET'MAP, la Météo Aéronautique d'un coup d'oeil ! - Copyright ORBIFLY Décembre 2007 - Disclaimer

ORBIFLY MET'MAP TEAM :

Programmation & Développement : Alexandra Zaïnal
Sur une idée originale de : Baudouin d'Aumeries
Assistance à la programmation : Marc-Olivier Méhu
Soutien technique & logistique : Manuel Goepfert

Contact : metmap@orbifly.com




SOURCES & CREDITS :

   NOAA